Time;durP1;ratioP1;P1;durP2;ratioP2;P2;SDS_P1;SDS_P2;PMS_P1;PMS_P2;Temp;Humidity;BMP_temperature;BMP_pressure;BME280_temperature;BME280_humidity;BME280_pressure;Samples;Min_cycle;Max_cycle;Signal;HPM_P1;HPM_P2
2022/07/06 00:02:04;;;;;;;1.50;0.80;;;21.90;50.30;;;;;;5015574;28;20252;-65
2022/07/06 00:04:29;;;;;;;1.80;0.80;;;21.80;49.70;;;;;;5015186;28;20200;-64
2022/07/06 00:06:55;;;;;;;2.05;1.10;;;21.80;49.50;;;;;;5015332;28;20207;-64
2022/07/06 00:09:20;;;;;;;1.58;1.00;;;21.80;49.70;;;;;;5015949;28;20193;-64
2022/07/06 00:11:46;;;;;;;3.30;1.02;;;21.80;49.70;;;;;;5014838;28;20256;-64
2022/07/06 00:14:11;;;;;;;1.23;1.00;;;21.80;50.00;;;;;;5015563;28;20666;-65
2022/07/06 00:16:37;;;;;;;0.85;0.77;;;21.80;50.20;;;;;;5015236;28;20249;-65
2022/07/06 00:19:02;;;;;;;1.00;0.90;;;21.80;50.30;;;;;;4997222;28;20260;-65
2022/07/06 00:21:28;;;;;;;0.80;0.80;;;21.80;50.50;;;;;;5015385;28;20306;-64
2022/07/06 00:23:53;;;;;;;0.90;0.70;;;21.80;50.50;;;;;;5015309;28;20282;-64
2022/07/06 00:26:19;;;;;;;1.10;1.00;;;21.80;50.30;;;;;;5014826;28;20537;-64
2022/07/06 00:28:45;;;;;;;1.52;0.80;;;21.80;50.30;;;;;;5015315;28;20567;-64
2022/07/06 00:31:10;;;;;;;2.33;1.30;;;21.80;50.50;;;;;;5015321;28;20168;-65
2022/07/06 00:33:36;;;;;;;1.65;0.85;;;21.80;50.30;;;;;;5014527;28;20180;-64
2022/07/06 00:36:04;;;;;;;1.10;0.80;;;21.70;50.20;;;;;;5014740;28;20176;-64
2022/07/06 00:38:30;;;;;;;1.30;0.90;;;21.80;50.20;;;;;;5015408;28;20274;-64
2022/07/06 00:40:55;;;;;;;0.82;0.60;;;21.70;50.10;;;;;;5013940;28;20630;-64
2022/07/06 00:43:21;;;;;;;1.95;1.10;;;21.70;50.00;;;;;;5015153;28;20204;-64
2022/07/06 00:45:46;;;;;;;1.60;1.02;;;21.70;50.10;;;;;;5014849;28;20177;-64
2022/07/06 00:48:12;;;;;;;1.73;1.35;;;21.70;50.10;;;;;;5014188;28;20174;-63
2022/07/06 00:50:37;;;;;;;3.22;1.10;;;21.70;50.20;;;;;;5014722;28;20203;-63
2022/07/06 00:53:04;;;;;;;1.02;0.85;;;21.70;50.10;;;;;;5014965;28;20165;-63
2022/07/06 00:55:32;;;;;;;0.93;0.93;;;21.70;50.30;;;;;;5014013;28;20279;-64
2022/07/06 00:57:57;;;;;;;1.67;0.80;;;21.70;50.20;;;;;;5014419;28;20228;-64
2022/07/06 01:00:25;;;;;;;1.58;0.85;;;21.70;50.20;;;;;;5014003;28;20219;-64
2022/07/06 01:02:51;;;;;;;0.68;0.68;;;21.70;50.30;;;;;;5014307;28;20233;-65
2022/07/06 01:05:17;;;;;;;1.42;0.70;;;21.70;50.30;;;;;;5014613;28;20275;-64
2022/07/06 01:07:44;;;;;;;2.05;0.90;;;21.70;50.30;;;;;;5013020;28;20187;-64
2022/07/06 01:10:11;;;;;;;1.02;0.82;;;21.70;50.40;;;;;;5014592;28;20254;-64
2022/07/06 01:12:38;;;;;;;0.77;0.68;;;21.70;50.80;;;;;;5014535;28;20176;-64
2022/07/06 01:15:05;;;;;;;2.13;1.05;;;21.70;50.50;;;;;;5013638;28;20172;-64
2022/07/06 01:17:31;;;;;;;2.35;1.10;;;21.60;50.40;;;;;;5014315;28;20219;-64
2022/07/06 01:19:56;;;;;;;1.45;1.00;;;21.60;50.50;;;;;;5013995;28;20181;-65
2022/07/06 01:22:22;;;;;;;1.23;0.93;;;21.60;50.40;;;;;;5013823;28;20177;-64
2022/07/06 01:24:47;;;;;;;1.83;0.90;;;21.60;50.60;;;;;;5014203;28;20181;-65
2022/07/06 01:27:12;;;;;;;1.35;0.95;;;21.60;50.60;;;;;;5014057;28;20188;-64
2022/07/06 01:29:38;;;;;;;1.00;0.70;;;21.60;50.70;;;;;;5013217;28;20517;-64
2022/07/06 01:32:04;;;;;;;1.33;1.00;;;21.60;50.70;;;;;;5014000;28;20650;-64
2022/07/06 01:34:29;;;;;;;1.77;0.90;;;21.60;50.70;;;;;;5013928;28;20181;-64
2022/07/06 01:36:55;;;;;;;3.25;1.10;;;21.60;50.70;;;;;;5013191;28;20227;-65
2022/07/06 01:39:21;;;;;;;1.33;0.90;;;21.60;50.80;;;;;;5014218;28;20181;-64
2022/07/06 01:41:46;;;;;;;1.13;1.00;;;21.60;50.80;;;;;;5013834;28;20275;-64
2022/07/06 01:44:11;;;;;;;1.58;0.93;;;21.50;50.70;;;;;;5013143;28;20175;-64
2022/07/06 01:46:37;;;;;;;1.45;1.08;;;21.50;50.80;;;;;;5013776;28;20267;-63
2022/07/06 01:49:03;;;;;;;0.98;0.88;;;21.50;50.70;;;;;;5013629;28;20243;-64
2022/07/06 01:51:29;;;;;;;1.92;1.00;;;21.60;50.70;;;;;;5013201;28;20176;-63
2022/07/06 01:53:54;;;;;;;2.42;1.10;;;21.50;50.70;;;;;;5013592;28;20177;-64
2022/07/06 01:56:20;;;;;;;2.15;0.82;;;21.50;50.80;;;;;;5013797;28;20199;-64
2022/07/06 01:58:48;;;;;;;1.55;0.70;;;21.50;50.80;;;;;;5012869;28;20584;-64
2022/07/06 02:01:16;;;;;;;1.85;1.00;;;21.50;50.80;;;;;;5013518;28;20180;-65
2022/07/06 02:03:41;;;;;;;2.45;1.30;;;21.50;50.80;;;;;;5012483;28;20270;-64
2022/07/06 02:06:07;;;;;;;2.28;1.00;;;21.50;50.90;;;;;;5013551;28;20196;-64
2022/07/06 02:08:33;;;;;;;2.70;1.48;;;21.50;50.70;;;;;;5013688;28;20176;-64
2022/07/06 02:10:59;;;;;;;2.28;0.90;;;21.50;50.60;;;;;;5012472;28;20234;-64
2022/07/06 02:13:24;;;;;;;1.92;1.15;;;21.50;50.60;;;;;;5013470;28;20177;-64
2022/07/06 02:15:50;;;;;;;1.90;1.23;;;21.50;50.80;;;;;;5013217;28;20173;-65
2022/07/06 02:18:15;;;;;;;1.55;1.02;;;21.50;50.70;;;;;;5012332;28;20694;-66
2022/07/06 02:20:41;;;;;;;2.25;0.90;;;21.40;50.70;;;;;;5013480;28;20172;-65
2022/07/06 02:23:06;;;;;;;4.07;1.17;;;21.50;50.70;;;;;;5013419;28;20256;-65
2022/07/06 02:25:32;;;;;;;1.20;0.98;;;21.40;50.60;;;;;;5012523;28;20606;-64
2022/07/06 02:27:57;;;;;;;1.52;0.93;;;21.40;50.70;;;;;;5012805;28;20175;-64
2022/07/06 02:30:23;;;;;;;1.35;1.00;;;21.40;50.70;;;;;;5013253;28;20229;-64
2022/07/06 02:32:48;;;;;;;3.10;1.30;;;21.40;50.60;;;;;;5012297;28;20177;-64
2022/07/06 02:35:14;;;;;;;1.85;1.10;;;21.40;50.80;;;;;;5013280;28;20181;-64
2022/07/06 02:37:39;;;;;;;1.92;1.02;;;21.40;50.90;;;;;;5013085;28;20290;-64
2022/07/06 02:40:05;;;;;;;1.73;0.88;;;21.40;50.80;;;;;;5012577;28;20251;-66
2022/07/06 02:42:31;;;;;;;1.27;0.98;;;21.40;50.80;;;;;;5013161;28;20206;-65
2022/07/06 02:44:56;;;;;;;1.40;0.90;;;21.40;50.80;;;;;;5012770;28;20184;-64
2022/07/06 02:47:22;;;;;;;1.20;1.10;;;21.40;50.80;;;;;;5012319;28;20185;-64
2022/07/06 02:49:48;;;;;;;1.58;1.00;;;21.40;50.80;;;;;;5012991;28;20176;-63
2022/07/06 02:52:13;;;;;;;1.45;1.10;;;21.40;50.80;;;;;;5013090;28;20192;-64
2022/07/06 02:54:39;;;;;;;2.13;1.00;;;21.40;50.70;;;;;;5012203;28;20623;-64
2022/07/06 02:57:04;;;;;;;1.85;1.02;;;21.40;50.90;;;;;;5012951;28;20259;-64
2022/07/06 02:59:30;;;;;;;0.95;0.80;;;21.40;50.70;;;;;;5012904;28;20219;-64
2022/07/06 03:01:55;;;;;;;2.63;1.13;;;21.30;50.70;;;;;;5011654;28;21715;-64
2022/07/06 03:04:21;;;;;;;1.38;1.17;;;21.40;50.80;;;;;;5012851;28;20647;-65
2022/07/06 03:06:46;;;;;;;2.80;1.02;;;21.30;50.70;;;;;;5012719;28;20275;-64
2022/07/06 03:09:12;;;;;;;1.35;0.95;;;21.30;50.70;;;;;;5012188;28;20261;-65
2022/07/06 03:11:37;;;;;;;2.13;1.00;;;21.40;50.90;;;;;;5012698;28;20685;-64
2022/07/06 03:14:03;;;;;;;3.10;1.20;;;21.30;50.70;;;;;;5012141;28;20178;-64
2022/07/06 03:16:29;;;;;;;2.65;1.10;;;21.30;51.40;;;;;;5012662;28;20291;-64
2022/07/06 03:18:55;;;;;;;2.50;1.23;;;21.30;50.80;;;;;;5012675;28;20295;-65
2022/07/06 03:21:20;;;;;;;1.75;1.15;;;21.30;50.70;;;;;;5011948;28;20709;-65
2022/07/06 03:23:46;;;;;;;1.50;0.80;;;21.30;50.90;;;;;;5012492;28;20661;-64
2022/07/06 03:26:11;;;;;;;1.13;0.77;;;21.30;51.00;;;;;;5012718;28;20272;-64
2022/07/06 03:28:37;;;;;;;1.02;0.80;;;21.30;50.90;;;;;;5011606;28;20195;-64
2022/07/06 03:31:02;;;;;;;1.27;1.10;;;21.30;51.10;;;;;;5015143;28;20188;-64
2022/07/06 03:33:28;;;;;;;1.15;0.88;;;21.30;51.30;;;;;;5016476;28;20177;-64
2022/07/06 03:35:53;;;;;;;1.25;0.90;;;21.30;51.30;;;;;;5015448;28;20173;-64
2022/07/06 03:38:19;;;;;;;2.53;1.10;;;21.30;51.10;;;;;;5016193;28;20351;-65
2022/07/06 03:40:44;;;;;;;2.10;1.13;;;21.20;51.00;;;;;;5016216;28;20661;-64
2022/07/06 03:43:10;;;;;;;2.45;1.23;;;21.20;51.00;;;;;;4997861;28;20180;-64
2022/07/06 03:45:35;;;;;;;3.40;1.27;;;21.20;51.20;;;;;;5016034;28;20192;-64
2022/07/06 03:48:01;;;;;;;3.58;1.15;;;21.20;51.10;;;;;;5015966;28;20238;-63
2022/07/06 03:50:26;;;;;;;1.67;1.20;;;21.30;51.10;;;;;;5015450;28;20184;-64
2022/07/06 03:52:52;;;;;;;2.08;1.10;;;21.20;51.00;;;;;;5015910;28;20177;-63
2022/07/06 03:55:17;;;;;;;3.42;1.05;;;21.20;51.10;;;;;;5015914;28;20516;-64
2022/07/06 03:57:43;;;;;;;2.63;0.85;;;21.20;51.00;;;;;;5014973;28;20573;-64
2022/07/06 04:00:09;;;;;;;1.05;0.77;;;21.20;50.90;;;;;;5015878;28;20212;-64
2022/07/06 04:02:34;;;;;;;2.92;0.90;;;21.20;51.10;;;;;;5015889;28;20223;-64
2022/07/06 04:05:00;;;;;;;1.52;0.85;;;21.20;51.10;;;;;;5015031;28;20173;-63
2022/07/06 04:07:26;;;;;;;1.17;1.00;;;21.20;51.10;;;;;;5015848;28;20181;-64
2022/07/06 04:09:51;;;;;;;1.10;0.80;;;21.20;51.00;;;;;;5015557;28;20522;-64
2022/07/06 04:12:17;;;;;;;1.45;0.82;;;21.20;51.10;;;;;;5014859;28;20208;-67
2022/07/06 04:14:42;;;;;;;1.23;0.80;;;21.20;51.20;;;;;;5015283;28;20179;-65
2022/07/06 04:19:52;;;;;;;2.33;0.90;;;21.20;51.20;;;;;;5015314;28;20552;-65
2022/07/06 04:22:17;;;;;;;1.33;1.00;;;21.20;51.20;;;;;;5015525;28;20173;-64
2022/07/06 04:24:43;;;;;;;1.10;0.90;;;21.20;51.10;;;;;;5014547;28;20218;-64
2022/07/06 04:27:08;;;;;;;1.45;1.00;;;21.20;51.10;;;;;;5015261;28;20227;-64
2022/07/06 04:29:34;;;;;;;1.33;0.80;;;21.20;51.10;;;;;;5015589;28;20230;-64
2022/07/06 04:31:59;;;;;;;1.27;1.10;;;21.20;51.20;;;;;;5014162;28;20180;-64
2022/07/06 04:34:25;;;;;;;2.58;1.10;;;21.20;51.20;;;;;;5015391;28;20183;-65
2022/07/06 04:36:50;;;;;;;1.98;0.82;;;21.20;51.10;;;;;;5014987;28;20208;-64
2022/07/06 04:39:16;;;;;;;1.67;1.00;;;21.20;51.50;;;;;;5014301;28;20172;-66
2022/07/06 04:41:41;;;;;;;2.35;0.93;;;21.20;51.70;;;;;;5013624;28;20655;-64
2022/07/06 04:44:07;;;;;;;1.13;0.80;;;21.20;51.80;;;;;;5014829;28;20180;-65
2022/07/06 04:46:32;;;;;;;2.50;0.85;;;21.20;51.90;;;;;;5014813;28;20215;-64
2022/07/06 04:48:58;;;;;;;1.65;1.05;;;21.20;52.00;;;;;;5015005;28;20173;-63
2022/07/06 04:51:23;;;;;;;1.35;0.80;;;21.30;52.00;;;;;;5014949;28;20638;-64
2022/07/06 04:53:49;;;;;;;0.80;0.80;;;21.20;52.00;;;;;;5014009;28;20226;-63
2022/07/06 04:56:14;;;;;;;1.48;1.08;;;21.20;52.80;;;;;;5014695;28;20172;-64
2022/07/06 04:58:40;;;;;;;1.33;1.00;;;21.30;52.00;;;;;;5014576;28;20234;-64
2022/07/06 05:01:05;;;;;;;1.45;0.80;;;21.30;52.10;;;;;;5014150;28;20176;-64
2022/07/06 05:03:31;;;;;;;1.42;0.73;;;21.20;52.10;;;;;;5014518;28;20592;-64
2022/07/06 05:05:57;;;;;;;1.17;0.90;;;21.20;52.10;;;;;;5014427;28;20181;-64
2022/07/06 05:08:22;;;;;;;1.17;0.75;;;21.20;52.30;;;;;;5014059;28;20215;-64
2022/07/06 05:10:48;;;;;;;1.08;0.98;;;21.20;52.30;;;;;;5014428;28;20259;-64
2022/07/06 05:13:14;;;;;;;1.80;0.90;;;21.20;52.20;;;;;;5014334;28;20267;-64
2022/07/06 05:15:39;;;;;;;1.38;0.88;;;21.20;52.30;;;;;;5013790;28;20196;-65
2022/07/06 05:18:05;;;;;;;1.35;0.95;;;21.20;52.40;;;;;;5014377;28;20215;-64
2022/07/06 05:20:30;;;;;;;0.90;0.80;;;21.20;52.40;;;;;;5013811;28;20172;-65
2022/07/06 05:22:56;;;;;;;0.98;0.65;;;21.20;52.50;;;;;;5014120;28;20191;-64
2022/07/06 05:25:21;;;;;;;1.25;0.70;;;21.20;52.50;;;;;;5014266;28;20177;-64
2022/07/06 05:27:47;;;;;;;2.05;0.70;;;21.20;52.60;;;;;;5013302;28;20639;-64
2022/07/06 05:30:12;;;;;;;0.88;0.68;;;21.20;52.60;;;;;;5014214;28;20239;-64
2022/07/06 05:32:38;;;;;;;2.22;0.70;;;21.20;52.50;;;;;;5014141;28;20177;-64
2022/07/06 05:35:04;;;;;;;1.33;0.80;;;21.20;52.60;;;;;;5013397;28;20662;-64
2022/07/06 05:37:29;;;;;;;2.08;0.70;;;21.20;52.50;;;;;;5013952;28;20266;-64
2022/07/06 05:39:55;;;;;;;2.72;1.15;;;21.20;52.60;;;;;;5013792;28;20517;-64
2022/07/06 05:42:20;;;;;;;0.80;0.65;;;21.20;52.60;;;;;;5013331;28;20214;-64
2022/07/06 05:44:46;;;;;;;1.15;0.82;;;21.20;52.60;;;;;;5013886;28;20255;-64
2022/07/06 05:50:14;;;;;;;1.25;0.75;;;21.20;52.60;;;;;;5012870;28;20242;-63
2022/07/06 05:52:44;;;;;;;0.88;0.77;;;21.30;52.50;;;;;;5013157;28;20598;-64
2022/07/06 05:55:12;;;;;;;1.02;0.70;;;21.30;52.50;;;;;;5013918;28;20230;-63
2022/07/06 05:57:39;;;;;;;1.00;0.60;;;21.30;52.60;;;;;;5012810;28;20240;-63
2022/07/06 06:00:06;;;;;;;2.65;1.05;;;21.30;52.50;;;;;;5013598;28;20180;-64
2022/07/06 06:02:41;;;;;;;7.03;1.35;;;21.30;52.50;;;;;;5013456;28;20233;-64
2022/07/06 06:05:07;;;;;;;5.85;1.17;;;21.30;52.70;;;;;;5013249;28;20175;-64
2022/07/06 06:07:37;;;;;;;2.25;0.90;;;21.30;52.60;;;;;;5013413;28;20647;-64
2022/07/06 06:10:07;;;;;;;2.25;1.23;;;21.30;52.80;;;;;;5012751;28;20219;-64
2022/07/06 06:12:33;;;;;;;5.55;1.42;;;21.30;52.80;;;;;;5013474;28;20631;-64
2022/07/06 06:14:58;;;;;;;1.55;0.70;;;21.30;53.00;;;;;;5013244;28;20180;-66
2022/07/06 06:17:24;;;;;;;4.25;1.35;;;21.30;52.90;;;;;;5012679;28;20801;-64
2022/07/06 06:19:49;;;;;;;5.15;1.30;;;21.30;52.80;;;;;;5012987;28;20186;-64
2022/07/06 06:22:15;;;;;;;4.38;1.02;;;21.40;52.90;;;;;;5013377;28;20183;-63
2022/07/06 06:24:40;;;;;;;5.43;0.90;;;21.40;52.90;;;;;;5012490;28;20172;-63
2022/07/06 06:27:06;;;;;;;3.10;1.02;;;21.40;52.90;;;;;;5013246;28;20180;-64
2022/07/06 06:29:32;;;;;;;6.85;1.05;;;21.40;52.90;;;;;;5013329;28;20574;-62
2022/07/06 06:31:57;;;;;;;1.77;0.80;;;21.40;52.90;;;;;;5012229;28;20666;-63
2022/07/06 06:34:23;;;;;;;3.50;1.15;;;21.40;52.90;;;;;;5013162;28;20173;-64
2022/07/06 06:36:48;;;;;;;3.72;1.17;;;21.40;53.00;;;;;;5012983;28;20212;-65
2022/07/06 06:39:14;;;;;;;3.38;0.93;;;21.40;52.90;;;;;;5012337;28;20645;-65
2022/07/06 06:41:39;;;;;;;5.55;1.30;;;21.40;52.90;;;;;;5012877;28;20717;-64
2022/07/06 06:44:05;;;;;;;2.78;0.90;;;21.40;52.90;;;;;;5012843;28;20583;-64
2022/07/06 06:46:30;;;;;;;2.78;1.42;;;21.50;53.00;;;;;;5012272;28;20173;-63
2022/07/06 06:48:56;;;;;;;3.40;0.98;;;21.50;53.00;;;;;;5012515;28;20883;-63
2022/07/06 06:51:21;;;;;;;1.73;0.90;;;21.50;53.00;;;;;;5013091;28;20226;-63
2022/07/06 06:53:47;;;;;;;2.40;0.80;;;21.50;52.90;;;;;;5012252;28;20212;-62
2022/07/06 06:56:12;;;;;;;2.45;0.90;;;21.50;52.80;;;;;;5012883;28;20256;-64
2022/07/06 06:58:38;;;;;;;7.15;1.52;;;21.50;52.90;;;;;;5012635;28;20180;-66
2022/07/06 07:01:04;;;;;;;2.95;1.10;;;21.50;53.00;;;;;;5011922;28;20173;-65
2022/07/06 07:03:30;;;;;;;4.28;1.35;;;21.50;53.00;;;;;;5012642;28;20227;-64
2022/07/06 07:05:55;;;;;;;2.20;0.88;;;21.50;53.20;;;;;;5015505;28;20254;-64
2022/07/06 07:08:21;;;;;;;2.50;0.90;;;21.50;53.20;;;;;;5016050;28;20182;-64
2022/07/06 07:10:46;;;;;;;2.58;0.90;;;21.50;53.20;;;;;;5016840;28;20180;-64
2022/07/06 07:13:12;;;;;;;4.20;1.23;;;21.50;53.20;;;;;;5016036;28;20180;-65
2022/07/06 07:15:37;;;;;;;3.40;0.93;;;21.50;53.20;;;;;;5016405;28;20164;-65
2022/07/06 07:18:03;;;;;;;2.92;0.98;;;21.50;53.20;;;;;;5016475;28;20650;-65
2022/07/06 07:20:30;;;;;;;2.58;0.98;;;21.50;53.20;;;;;;5016015;28;20177;-65
2022/07/06 07:22:55;;;;;;;1.95;1.15;;;21.50;53.30;;;;;;5016465;28;20263;-65
2022/07/06 07:25:21;;;;;;;1.40;0.80;;;21.50;53.30;;;;;;5016732;28;20196;-64
2022/07/06 07:27:46;;;;;;;1.73;0.90;;;21.50;53.30;;;;;;5015597;28;20211;-64
2022/07/06 07:30:12;;;;;;;1.63;0.70;;;21.50;53.30;;;;;;5016324;28;20687;-64
2022/07/06 07:32:40;;;;;;;1.90;0.90;;;21.50;53.30;;;;;;5016059;28;20181;-64
2022/07/06 07:35:06;;;;;;;2.35;1.05;;;21.50;53.30;;;;;;5015509;28;20587;-64
2022/07/06 07:37:31;;;;;;;2.88;0.93;;;21.50;53.30;;;;;;5016125;28;20212;-65
2022/07/06 07:39:57;;;;;;;2.42;0.77;;;21.50;53.20;;;;;;5015827;28;20271;-65
2022/07/06 07:42:22;;;;;;;1.60;0.70;;;21.60;53.20;;;;;;5015606;28;20267;-65
2022/07/06 07:44:48;;;;;;;2.30;1.08;;;21.60;53.30;;;;;;5016059;28;20177;-64
2022/07/06 07:47:13;;;;;;;1.10;0.77;;;21.60;53.20;;;;;;5015958;28;20184;-65
2022/07/06 07:49:39;;;;;;;1.10;0.85;;;21.60;53.20;;;;;;5015365;28;20177;-64
2022/07/06 07:52:04;;;;;;;1.85;0.98;;;21.60;53.20;;;;;;5016118;28;20540;-64
2022/07/06 07:54:30;;;;;;;0.95;0.60;;;21.60;53.10;;;;;;5015997;28;20219;-64
2022/07/06 07:56:56;;;;;;;1.98;0.80;;;21.60;53.10;;;;;;5014733;28;20366;-64
2022/07/06 07:59:22;;;;;;;1.05;0.57;;;21.60;53.10;;;;;;5015845;28;20172;-64
2022/07/06 08:01:47;;;;;;;1.35;0.68;;;21.70;53.10;;;;;;5015383;28;20184;-64
2022/07/06 08:04:13;;;;;;;1.35;0.90;;;21.70;53.10;;;;;;5015024;28;20624;-65
2022/07/06 08:06:38;;;;;;;1.02;0.90;;;21.70;53.10;;;;;;5015674;28;20188;-65
2022/07/06 08:09:04;;;;;;;2.33;0.80;;;21.70;53.10;;;;;;5015665;28;20512;-65
2022/07/06 08:11:30;;;;;;;0.60;0.55;;;21.70;53.30;;;;;;5015064;28;20181;-65
2022/07/06 08:13:55;;;;;;;1.60;1.08;;;21.60;53.20;;;;;;5015425;28;20542;-64
2022/07/06 08:16:21;;;;;;;0.68;0.50;;;21.60;53.30;;;;;;5014498;28;20246;-65
2022/07/06 08:18:46;;;;;;;2.80;0.70;;;21.60;53.40;;;;;;5015507;28;20184;-65
2022/07/06 08:21:12;;;;;;;1.05;0.75;;;21.60;53.30;;;;;;5015452;28;20179;-66
2022/07/06 08:23:38;;;;;;;2.10;1.08;;;21.60;53.20;;;;;;5014623;28;20168;-65
2022/07/06 08:26:03;;;;;;;1.63;0.90;;;21.70;53.20;;;;;;5015346;28;20215;-64
2022/07/06 08:28:29;;;;;;;1.13;0.70;;;21.70;53.10;;;;;;5015428;28;20207;-65
2022/07/06 08:30:54;;;;;;;0.60;0.60;;;21.80;53.10;;;;;;5014202;28;20180;-64
2022/07/06 08:33:20;;;;;;;1.52;0.80;;;21.70;53.00;;;;;;5015513;28;20267;-65
2022/07/06 08:35:46;;;;;;;2.25;0.60;;;21.70;53.10;;;;;;5014920;28;20635;-65
2022/07/06 08:38:11;;;;;;;1.50;0.63;;;21.70;53.10;;;;;;5014203;28;20216;-65
2022/07/06 08:40:38;;;;;;;2.30;0.70;;;21.80;53.10;;;;;;5014994;28;20191;-65
2022/07/06 08:43:03;;;;;;;1.92;1.15;;;21.80;52.90;;;;;;5015106;28;20597;-65
2022/07/06 08:45:29;;;;;;;1.20;0.60;;;21.90;52.90;;;;;;5014344;28;20702;-64
2022/07/06 08:47:55;;;;;;;1.27;0.68;;;21.90;52.90;;;;;;5014642;28;20179;-63
2022/07/06 08:50:20;;;;;;;1.05;0.65;;;21.90;52.70;;;;;;5015065;28;20256;-66
2022/07/06 08:52:47;;;;;;;1.67;0.80;;;21.90;52.70;;;;;;5014125;28;20214;-64
2022/07/06 08:55:13;;;;;;;1.13;0.55;;;22.00;52.80;;;;;;5014837;28;20177;-65
2022/07/06 08:57:41;;;;;;;1.13;0.60;;;22.00;52.70;;;;;;4996995;28;20220;-64
2022/07/06 09:00:10;;;;;;;0.63;0.50;;;22.00;52.60;;;;;;4996839;28;20184;-64
2022/07/06 09:02:35;;;;;;;0.70;0.40;;;22.00;52.50;;;;;;5014762;28;20259;-64
2022/07/06 09:05:01;;;;;;;1.38;0.50;;;22.10;52.50;;;;;;4996929;28;20619;-64
2022/07/06 09:07:28;;;;;;;1.33;0.55;;;22.00;52.30;;;;;;4996745;28;20595;-64
2022/07/06 09:09:54;;;;;;;1.30;0.50;;;22.10;52.50;;;;;;5014288;28;20679;-64
2022/07/06 09:12:19;;;;;;;1.80;0.70;;;22.00;52.60;;;;;;4997348;28;20271;-69
2022/07/06 09:14:45;;;;;;;0.52;0.45;;;22.00;52.60;;;;;;5013618;28;20204;-66
2022/07/06 09:17:11;;;;;;;1.27;0.75;;;22.00;52.60;;;;;;5014404;28;20300;-65
2022/07/06 09:19:37;;;;;;;1.60;0.50;;;22.00;52.50;;;;;;5013951;28;20204;-65
2022/07/06 09:22:03;;;;;;;0.50;0.50;;;22.10;52.40;;;;;;5014018;28;20254;-64
2022/07/06 09:24:29;;;;;;;1.08;0.55;;;22.20;52.30;;;;;;5014397;28;20176;-64
2022/07/06 09:27:00;;;;;;;1.17;0.60;;;22.10;52.30;;;;;;5013108;28;20219;-63
2022/07/06 09:29:30;;;;;;;0.50;0.40;;;22.00;52.30;;;;;;5013739;28;20187;-64
2022/07/06 09:31:59;;;;;;;0.90;0.40;;;22.00;52.50;;;;;;5014028;28;20179;-64
2022/07/06 09:34:26;;;;;;;2.28;1.02;;;22.00;52.60;;;;;;5013568;28;20183;-65
2022/07/06 09:36:52;;;;;;;2.67;0.77;;;21.90;52.60;;;;;;5013883;28;20220;-64
2022/07/06 09:39:27;;;;;;;0.50;0.50;;;22.00;52.60;;;;;;5013943;28;20172;-64
2022/07/06 09:41:57;;;;;;;0.93;0.40;;;22.00;52.50;;;;;;5013171;28;20576;-64
2022/07/06 09:44:30;;;;;;;0.57;0.50;;;22.10;52.40;;;;;;5013962;28;20695;-64
2022/07/06 09:46:57;;;;;;;0.75;0.30;;;22.10;52.50;;;;;;5013593;28;20269;-63
2022/07/06 09:49:23;;;;;;;0.70;0.40;;;22.10;52.40;;;;;;5013370;28;20176;-64
2022/07/06 09:51:51;;;;;;;1.27;0.60;;;22.00;52.40;;;;;;5013731;28;20271;-63
2022/07/06 09:54:16;;;;;;;0.68;0.50;;;22.00;52.40;;;;;;5013647;28;20187;-65
2022/07/06 09:56:44;;;;;;;0.60;0.47;;;22.10;52.40;;;;;;5012695;28;20204;-64
2022/07/06 09:59:10;;;;;;;1.10;0.40;;;22.10;52.30;;;;;;5013790;28;20563;-64
2022/07/06 10:01:37;;;;;;;1.23;0.60;;;22.20;52.20;;;;;;5013753;28;20180;-64
2022/07/06 10:04:02;;;;;;;0.45;0.38;;;22.20;52.10;;;;;;4995598;28;20184;-64
2022/07/06 10:06:28;;;;;;;0.85;0.40;;;22.20;52.10;;;;;;5013697;28;20164;-65
2022/07/06 10:08:58;;;;;;;0.60;0.43;;;22.20;52.10;;;;;;5012478;28;20654;-64
2022/07/06 10:11:24;;;;;;;1.65;0.50;;;22.20;52.70;;;;;;5013425;28;20550;-64
2022/07/06 10:13:49;;;;;;;2.17;0.60;;;22.20;52.10;;;;;;5013240;28;20264;-64
2022/07/06 10:16:14;;;;;;;0.45;0.45;;;22.20;52.20;;;;;;4978954;28;20176;-65
2022/07/06 10:18:40;;;;;;;0.63;0.50;;;22.20;52.30;;;;;;4995351;28;20239;-65
2022/07/06 10:21:06;;;;;;;0.93;0.30;;;22.20;52.20;;;;;;4995023;28;20200;-66
2022/07/06 10:23:31;;;;;;;0.85;0.63;;;22.20;52.80;;;;;;5011070;28;20642;-64
2022/07/06 10:25:57;;;;;;;2.65;0.50;;;22.20;52.20;;;;;;5012004;28;20172;-63
2022/07/06 10:28:23;;;;;;;5.93;1.00;;;22.20;52.20;;;;;;4995681;28;20226;-63
2022/07/06 10:30:49;;;;;;;6.47;1.58;;;22.20;52.30;;;;;;5012470;28;20196;-64
2022/07/06 10:33:14;;;;;;;7.72;1.52;;;22.20;52.30;;;;;;4979412;28;20176;-64
2022/07/06 10:35:40;;;;;;;4.15;1.52;;;22.20;52.30;;;;;;4995377;28;20631;-63
2022/07/06 10:38:09;;;;;;;2.20;1.40;;;22.30;52.30;;;;;;4994680;28;20208;-64
2022/07/06 10:43:21;;;;;;;3.05;1.20;;;22.20;52.30;;;;;;5013208;28;20210;-64
2022/07/06 10:45:46;;;;;;;2.72;1.30;;;22.20;52.40;;;;;;5012165;28;20215;-64
2022/07/06 10:48:12;;;;;;;5.70;1.30;;;22.20;52.50;;;;;;5013023;28;20276;-64
2022/07/06 10:50:43;;;;;;;8.00;1.40;;;22.20;52.30;;;;;;5012725;28;20176;-63
2022/07/06 10:53:17;;;;;;;6.75;1.48;;;22.20;52.30;;;;;;5012306;28;20223;-64
2022/07/06 10:55:44;;;;;;;4.60;1.30;;;22.20;52.30;;;;;;5013023;28;20172;-65
2022/07/06 10:58:10;;;;;;;6.75;1.80;;;22.30;52.40;;;;;;5012054;28;20223;-67
2022/07/06 11:00:55;;;;;;;6.35;1.70;;;22.40;52.30;;;;;;5012839;28;20639;-63
2022/07/06 11:03:43;;;;;;;8.30;1.48;;;22.40;52.20;;;;;;5012500;28;20720;-66
2022/07/06 11:06:16;;;;;;;5.22;1.67;;;22.40;52.30;;;;;;5012160;28;20187;-65
2022/07/06 11:08:46;;;;;;;6.90;1.65;;;22.50;52.00;;;;;;5012769;28;20186;-66
2022/07/06 11:11:12;;;;;;;4.55;1.20;;;22.50;52.00;;;;;;5012767;28;20176;-68
2022/07/06 11:13:53;;;;;;;7.28;1.55;;;22.40;52.00;;;;;;5011875;28;20177;-65
2022/07/06 11:16:18;;;;;;;12.57;2.00;;;22.40;52.20;;;;;;5012862;28;20176;-66
2022/07/06 11:18:58;;;;;;;5.18;1.40;;;22.30;52.30;;;;;;5012636;28;20235;-66
2022/07/06 11:21:24;;;;;;;5.45;1.50;;;22.30;52.30;;;;;;5011982;28;20658;-66
2022/07/06 11:23:50;;;;;;;6.13;1.45;;;22.40;52.30;;;;;;4994447;28;20184;-65
2022/07/06 11:26:16;;;;;;;5.32;1.15;;;22.40;52.20;;;;;;5012005;28;20653;-65
2022/07/06 11:28:41;;;;;;;6.93;1.75;;;22.30;52.20;;;;;;5011411;28;20177;-65
2022/07/06 11:31:07;;;;;;;4.35;1.20;;;22.30;52.40;;;;;;5012556;28;20196;-64
2022/07/06 11:33:32;;;;;;;6.70;1.45;;;22.30;52.30;;;;;;5011996;28;20243;-65
2022/07/06 11:36:18;;;;;;;5.55;1.25;;;22.30;52.30;;;;;;5012226;28;20221;-65
2022/07/06 11:38:43;;;;;;;7.65;1.48;;;22.40;52.10;;;;;;5012784;28;20208;-65
2022/07/06 11:41:11;;;;;;;3.28;1.30;;;22.50;52.00;;;;;;5011923;28;20184;-64
2022/07/06 11:43:37;;;;;;;4.72;1.33;;;22.50;51.90;;;;;;5012478;28;20204;-65
2022/07/06 11:46:03;;;;;;;5.22;1.23;;;22.50;51.80;;;;;;5012335;28;20591;-64
2022/07/06 11:48:28;;;;;;;2.17;1.20;;;22.60;51.80;;;;;;5011788;28;20176;-64
2022/07/06 11:51:00;;;;;;;1.50;0.80;;;22.60;51.80;;;;;;4995496;28;20172;-64
2022/07/06 11:53:26;;;;;;;4.68;0.98;;;22.60;51.70;;;;;;5016192;28;20176;-64
2022/07/06 11:55:52;;;;;;;2.60;1.05;;;22.60;52.30;;;;;;5015220;28;20203;-65
2022/07/06 11:58:20;;;;;;;4.97;1.27;;;22.70;51.60;;;;;;5015894;28;20243;-65
2022/07/06 12:01:06;;;;;;;1.85;0.80;;;22.70;51.60;;;;;;4998644;28;20187;-64
2022/07/06 12:03:32;;;;;;;2.13;0.90;;;22.60;51.50;;;;;;5014824;28;20232;-65
2022/07/06 12:05:59;;;;;;;3.72;0.85;;;22.70;51.50;;;;;;5015741;28;20200;-65
2022/07/06 12:08:24;;;;;;;2.15;0.90;;;22.60;51.50;;;;;;5015674;28;20540;-65
2022/07/06 12:10:50;;;;;;;1.73;0.73;;;22.60;51.60;;;;;;5014940;28;20279;-65
2022/07/06 12:13:15;;;;;;;2.95;1.00;;;22.50;51.70;;;;;;5015511;28;20645;-66
2022/07/06 12:15:41;;;;;;;1.80;0.70;;;22.40;51.80;;;;;;5014717;28;20183;-65
2022/07/06 12:18:06;;;;;;;2.00;0.77;;;22.40;51.80;;;;;;5015362;28;20222;-66
2022/07/06 12:20:32;;;;;;;2.85;1.08;;;22.40;52.00;;;;;;4998270;28;20263;-65
2022/07/06 12:23:04;;;;;;;2.67;0.70;;;22.30;52.10;;;;;;5014580;28;20176;-65
2022/07/06 12:25:34;;;;;;;3.22;0.85;;;22.40;52.20;;;;;;5015615;28;20187;-65
2022/07/06 12:28:00;;;;;;;1.63;0.65;;;22.50;52.00;;;;;;5015118;28;20267;-65
2022/07/06 12:30:25;;;;;;;2.63;0.90;;;22.50;51.70;;;;;;5014693;28;20267;-64
2022/07/06 12:33:10;;;;;;;1.90;0.70;;;22.60;51.60;;;;;;5015076;28;20208;-64
2022/07/06 12:35:36;;;;;;;3.20;0.82;;;22.50;51.60;;;;;;5015392;28;20215;-65
2022/07/06 12:38:01;;;;;;;2.45;0.85;;;22.50;51.70;;;;;;5014502;28;20608;-65
2022/07/06 12:40:31;;;;;;;2.05;0.80;;;22.40;51.70;;;;;;5015276;28;20237;-65
2022/07/06 12:42:56;;;;;;;2.35;0.70;;;22.50;51.70;;;;;;5015033;28;20188;-64
2022/07/06 12:45:28;;;;;;;2.00;1.05;;;22.60;51.60;;;;;;5014560;28;20171;-65
2022/07/06 12:48:05;;;;;;;2.47;1.00;;;22.60;51.50;;;;;;5014797;28;20184;-64
2022/07/06 12:50:38;;;;;;;2.03;0.88;;;22.60;51.50;;;;;;5015018;28;20191;-64
2022/07/06 12:53:04;;;;;;;2.15;0.70;;;22.70;51.30;;;;;;5014936;28;20180;-65